Fairfield County (LHQ)

 

Airport Diagram
No Airport Diagram Available
Current Weather/Forecast (MVFR Conditions)
METAR KLHQ 191453Z AUTO 16008KT 5SM -RA BR SCT006 BKN080 OVC095 13/11 A3018 RMK AO2 SLP219 P0005 60009 T01280111 58004
TAF

Airport Information

All Charts
General
Chart Name View
TAKEOFF MINIMUMS
ALTERNATE MINIMUMS
TAKEOFF MINIMUMS
ALTERNATE MINIMUMS

Arrivals
Chart Name Download
GAILL THREE (RNAV)
GUNNE FOUR
GUNNE FOUR, CONT.1
GAILL THREE (RNAV)
GUNNE FOUR
GUNNE FOUR, CONT.1

Approaches
Chart Name Download
RNAV (GPS) RWY 10
RNAV (GPS) RWY 28
VOR OR GPS-A
RNAV (GPS) RWY 10
RNAV (GPS) RWY 28
VOR OR GPS-A


Airport Statistics
Departures Arrivals Local
All Collected Stats since June 2016: 11 11 1
2020 Stats: 5 5 0
October Stats: 0 0 0

Inbound Traffic (Arrivals) - 0

No inbound traffic.


Outbound Traffic (Departures) - 0

No outbound traffic.


Local Traffic (Pattern) - 0

No local traffic.